sensor_id;sensor_type;location;lat;lon;timestamp;temperature;humidity
3626;DHT22;1827;50.534;8.316;2023-06-22T00:00:59;19.40;1.00
3626;DHT22;1827;50.534;8.316;2023-06-22T00:03:26;19.40;1.00
3626;DHT22;1827;50.534;8.316;2023-06-22T00:06:00;19.40;1.00
3626;DHT22;1827;50.534;8.316;2023-06-22T00:08:28;19.40;1.00
3626;DHT22;1827;50.534;8.316;2023-06-22T00:10:57;19.50;1.00
3626;DHT22;1827;50.534;8.316;2023-06-22T00:13:25;19.60;1.00
3626;DHT22;1827;50.534;8.316;2023-06-22T00:15:53;19.50;1.00
3626;DHT22;1827;50.534;8.316;2023-06-22T00:18:19;19.60;1.00
3626;DHT22;1827;50.534;8.316;2023-06-22T00:20:50;19.60;1.00
3626;DHT22;1827;50.534;8.316;2023-06-22T00:23:16;19.60;1.00
3626;DHT22;1827;50.534;8.316;2023-06-22T00:25:49;19.60;1.00
3626;DHT22;1827;50.534;8.316;2023-06-22T00:28:15;19.60;1.00
3626;DHT22;1827;50.534;8.316;2023-06-22T00:30:41;19.50;1.00
3626;DHT22;1827;50.534;8.316;2023-06-22T00:33:07;19.40;1.00
3626;DHT22;1827;50.534;8.316;2023-06-22T00:35:35;19.50;1.00
3626;DHT22;1827;50.534;8.316;2023-06-22T00:38:01;19.50;1.00
3626;DHT22;1827;50.534;8.316;2023-06-22T00:40:28;19.50;1.00
3626;DHT22;1827;50.534;8.316;2023-06-22T00:42:54;19.50;1.00
3626;DHT22;1827;50.534;8.316;2023-06-22T00:45:23;19.50;1.00
3626;DHT22;1827;50.534;8.316;2023-06-22T00:47:53;19.50;1.00
3626;DHT22;1827;50.534;8.316;2023-06-22T00:50:28;19.60;1.00
3626;DHT22;1827;50.534;8.316;2023-06-22T00:53:03;19.70;1.00
3626;DHT22;1827;50.534;8.316;2023-06-22T00:55:36;19.60;1.00
3626;DHT22;1827;50.534;8.316;2023-06-22T00:58:20;19.50;1.00
3626;DHT22;1827;50.534;8.316;2023-06-22T01:00:48;19.50;1.00
3626;DHT22;1827;50.534;8.316;2023-06-22T01:03:16;19.40;1.00
3626;DHT22;1827;50.534;8.316;2023-06-22T01:05:50;19.40;1.00
3626;DHT22;1827;50.534;8.316;2023-06-22T01:09:25;19.50;1.00
3626;DHT22;1827;50.534;8.316;2023-06-22T01:11:23;19.50;1.00
3626;DHT22;1827;50.534;8.316;2023-06-22T01:16:31;19.50;17.60
3626;DHT22;1827;50.534;8.316;2023-06-22T01:19:09;19.50;6.30
3626;DHT22;1827;50.534;8.316;2023-06-22T01:21:50;19.50;18.80
3626;DHT22;1827;50.534;8.316;2023-06-22T01:29:51;19.70;1.00
3626;DHT22;1827;50.534;8.316;2023-06-22T01:32:23;19.60;1.00
3626;DHT22;1827;50.534;8.316;2023-06-22T01:34:57;19.60;1.00
3626;DHT22;1827;50.534;8.316;2023-06-22T01:37:23;19.40;12.40
3626;DHT22;1827;50.534;8.316;2023-06-22T01:39:58;19.40;72.20
3626;DHT22;1827;50.534;8.316;2023-06-22T01:42:25;19.20;99.90
3626;DHT22;1827;50.534;8.316;2023-06-22T01:44:58;19.00;99.90
3626;DHT22;1827;50.534;8.316;2023-06-22T01:47:25;18.90;1.00
3626;DHT22;1827;50.534;8.316;2023-06-22T01:49:56;18.90;1.00
3626;DHT22;1827;50.534;8.316;2023-06-22T01:52:33;18.80;1.00
3626;DHT22;1827;50.534;8.316;2023-06-22T01:55:00;18.90;1.00
3626;DHT22;1827;50.534;8.316;2023-06-22T01:57:26;19.10;1.00
3626;DHT22;1827;50.534;8.316;2023-06-22T02:00:02;19.20;1.00
3626;DHT22;1827;50.534;8.316;2023-06-22T02:02:43;19.20;1.00
3626;DHT22;1827;50.534;8.316;2023-06-22T02:05:16;19.20;1.00
3626;DHT22;1827;50.534;8.316;2023-06-22T02:07:56;19.10;1.00
3626;DHT22;1827;50.534;8.316;2023-06-22T02:10:26;18.90;1.00
3626;DHT22;1827;50.534;8.316;2023-06-22T02:12:53;18.90;1.00
3626;DHT22;1827;50.534;8.316;2023-06-22T02:15:23;18.90;1.00
3626;DHT22;1827;50.534;8.316;2023-06-22T02:17:52;18.90;1.00
3626;DHT22;1827;50.534;8.316;2023-06-22T02:20:21;18.90;1.00
3626;DHT22;1827;50.534;8.316;2023-06-22T02:23:01;18.90;1.00
3626;DHT22;1827;50.534;8.316;2023-06-22T02:25:27;18.90;1.00
3626;DHT22;1827;50.534;8.316;2023-06-22T02:28:00;18.90;1.00
3626;DHT22;1827;50.534;8.316;2023-06-22T02:30:26;18.80;54.30
3626;DHT22;1827;50.534;8.316;2023-06-22T02:32:58;18.70;99.90
3626;DHT22;1827;50.534;8.316;2023-06-22T02:35:25;18.60;99.90
3626;DHT22;1827;50.534;8.316;2023-06-22T02:37:51;18.60;99.90
3626;DHT22;1827;50.534;8.316;2023-06-22T02:40:24;18.60;1.00
3626;DHT22;1827;50.534;8.316;2023-06-22T02:42:50;18.70;1.00
3626;DHT22;1827;50.534;8.316;2023-06-22T02:45:29;18.70;1.00
3626;DHT22;1827;50.534;8.316;2023-06-22T02:47:58;18.70;1.00
3626;DHT22;1827;50.534;8.316;2023-06-22T02:50:24;18.80;1.00
3626;DHT22;1827;50.534;8.316;2023-06-22T02:52:55;18.70;1.00
3626;DHT22;1827;50.534;8.316;2023-06-22T02:55:24;18.70;1.00
3626;DHT22;1827;50.534;8.316;2023-06-22T02:58:01;18.80;1.00
3626;DHT22;1827;50.534;8.316;2023-06-22T03:00:32;18.80;1.00
3626;DHT22;1827;50.534;8.316;2023-06-22T03:03:01;18.80;1.00
3626;DHT22;1827;50.534;8.316;2023-06-22T03:05:30;18.70;1.00
3626;DHT22;1827;50.534;8.316;2023-06-22T03:08:08;18.70;1.00
3626;DHT22;1827;50.534;8.316;2023-06-22T03:10:55;18.60;1.00
3626;DHT22;1827;50.534;8.316;2023-06-22T03:13:21;18.70;1.00
3626;DHT22;1827;50.534;8.316;2023-06-22T03:15:50;18.70;1.00
3626;DHT22;1827;50.534;8.316;2023-06-22T03:18:25;18.80;1.00
3626;DHT22;1827;50.534;8.316;2023-06-22T03:20:51;18.70;1.00
3626;DHT22;1827;50.534;8.316;2023-06-22T03:23:17;18.70;1.00
3626;DHT22;1827;50.534;8.316;2023-06-22T03:25:51;18.70;1.00
3626;DHT22;1827;50.534;8.316;2023-06-22T03:28:19;18.70;1.00
3626;DHT22;1827;50.534;8.316;2023-06-22T03:30:45;18.70;1.00
3626;DHT22;1827;50.534;8.316;2023-06-22T03:33:18;18.70;1.00
3626;DHT22;1827;50.534;8.316;2023-06-22T03:35:57;18.60;1.00
3626;DHT22;1827;50.534;8.316;2023-06-22T03:38:33;18.50;1.00
3626;DHT22;1827;50.534;8.316;2023-06-22T03:40:59;18.50;1.00
3626;DHT22;1827;50.534;8.316;2023-06-22T03:43:28;18.40;1.00
3626;DHT22;1827;50.534;8.316;2023-06-22T03:45:56;18.50;1.00
3626;DHT22;1827;50.534;8.316;2023-06-22T03:48:22;18.50;1.00
3626;DHT22;1827;50.534;8.316;2023-06-22T03:50:48;18.50;1.00
3626;DHT22;1827;50.534;8.316;2023-06-22T03:53:15;18.50;1.00
3626;DHT22;1827;50.534;8.316;2023-06-22T03:55:48;18.40;1.00
3626;DHT22;1827;50.534;8.316;2023-06-22T03:58:15;18.40;1.00
3626;DHT22;1827;50.534;8.316;2023-06-22T04:00:41;18.40;1.00
3626;DHT22;1827;50.534;8.316;2023-06-22T04:03:06;18.50;52.20
3626;DHT22;1827;50.534;8.316;2023-06-22T04:05:35;18.50;37.80
3626;DHT22;1827;50.534;8.316;2023-06-22T04:08:01;18.50;15.00
3626;DHT22;1827;50.534;8.316;2023-06-22T04:10:27;18.60;1.00
3626;DHT22;1827;50.534;8.316;2023-06-22T04:12:53;18.60;1.00
3626;DHT22;1827;50.534;8.316;2023-06-22T04:15:19;18.70;3.70
3626;DHT22;1827;50.534;8.316;2023-06-22T04:17:45;18.80;1.00
3626;DHT22;1827;50.534;8.316;2023-06-22T04:20:14;18.80;1.00
3626;DHT22;1827;50.534;8.316;2023-06-22T04:22:42;19.00;1.00
3626;DHT22;1827;50.534;8.316;2023-06-22T04:25:10;19.00;1.00
3626;DHT22;1827;50.534;8.316;2023-06-22T04:27:38;19.00;1.00
3626;DHT22;1827;50.534;8.316;2023-06-22T04:30:06;19.00;1.00
3626;DHT22;1827;50.534;8.316;2023-06-22T04:32:33;18.90;99.90
3626;DHT22;1827;50.534;8.316;2023-06-22T04:34:59;18.90;99.90
3626;DHT22;1827;50.534;8.316;2023-06-22T04:37:43;18.80;99.90
3626;DHT22;1827;50.534;8.316;2023-06-22T04:40:23;18.80;1.00
3626;DHT22;1827;50.534;8.316;2023-06-22T04:43:08;18.80;1.00
3626;DHT22;1827;50.534;8.316;2023-06-22T04:45:37;18.80;1.00
3626;DHT22;1827;50.534;8.316;2023-06-22T04:51:09;18.90;1.00
3626;DHT22;1827;50.534;8.316;2023-06-22T04:53:55;19.00;1.00
3626;DHT22;1827;50.534;8.316;2023-06-22T04:56:32;19.10;1.00
3626;DHT22;1827;50.534;8.316;2023-06-22T04:59:02;19.00;1.00
3626;DHT22;1827;50.534;8.316;2023-06-22T05:01:34;19.10;1.00
3626;DHT22;1827;50.534;8.316;2023-06-22T05:04:02;19.20;1.00
3626;DHT22;1827;50.534;8.316;2023-06-22T05:06:30;19.20;99.90
3626;DHT22;1827;50.534;8.316;2023-06-22T05:08:58;19.20;99.90
3626;DHT22;1827;50.534;8.316;2023-06-22T05:11:39;19.30;99.90
3626;DHT22;1827;50.534;8.316;2023-06-22T05:14:08;19.50;99.90
3626;DHT22;1827;50.534;8.316;2023-06-22T05:16:34;19.60;99.90
3626;DHT22;1827;50.534;8.316;2023-06-22T05:19:02;19.70;36.80
3626;DHT22;1827;50.534;8.316;2023-06-22T05:21:31;19.80;1.00
3626;DHT22;1827;50.534;8.316;2023-06-22T05:23:58;19.80;1.00
3626;DHT22;1827;50.534;8.316;2023-06-22T05:26:26;19.90;1.00
3626;DHT22;1827;50.534;8.316;2023-06-22T05:28:52;20.10;1.00
3626;DHT22;1827;50.534;8.316;2023-06-22T05:31:23;20.30;1.00
3626;DHT22;1827;50.534;8.316;2023-06-22T05:33:51;20.40;99.90
3626;DHT22;1827;50.534;8.316;2023-06-22T05:36:23;20.50;99.90
3626;DHT22;1827;50.534;8.316;2023-06-22T05:38:52;20.30;99.90
3626;DHT22;1827;50.534;8.316;2023-06-22T05:41:23;20.20;99.90
3626;DHT22;1827;50.534;8.316;2023-06-22T05:43:56;20.30;99.90
3626;DHT22;1827;50.534;8.316;2023-06-22T05:46:22;20.40;99.90
3626;DHT22;1827;50.534;8.316;2023-06-22T05:48:48;20.60;99.90
3626;DHT22;1827;50.534;8.316;2023-06-22T05:51:14;20.90;46.40
3626;DHT22;1827;50.534;8.316;2023-06-22T05:53:42;21.30;6.50
3626;DHT22;1827;50.534;8.316;2023-06-22T05:56:09;21.10;1.00
3626;DHT22;1827;50.534;8.316;2023-06-22T05:58:35;21.00;1.00
3626;DHT22;1827;50.534;8.316;2023-06-22T06:01:01;21.00;1.00
3626;DHT22;1827;50.534;8.316;2023-06-22T06:03:27;21.20;1.00
3626;DHT22;1827;50.534;8.316;2023-06-22T06:05:54;21.10;1.00
3626;DHT22;1827;50.534;8.316;2023-06-22T06:08:20;21.40;1.00
3626;DHT22;1827;50.534;8.316;2023-06-22T06:10:49;22.00;1.00
3626;DHT22;1827;50.534;8.316;2023-06-22T06:13:14;21.60;1.00
3626;DHT22;1827;50.534;8.316;2023-06-22T06:15:40;21.80;1.00
3626;DHT22;1827;50.534;8.316;2023-06-22T06:18:08;21.70;1.00
3626;DHT22;1827;50.534;8.316;2023-06-22T06:20:34;21.90;1.00
3626;DHT22;1827;50.534;8.316;2023-06-22T06:23:03;22.20;1.00
3626;DHT22;1827;50.534;8.316;2023-06-22T06:25:29;22.60;1.00
3626;DHT22;1827;50.534;8.316;2023-06-22T06:27:55;22.90;1.00
3626;DHT22;1827;50.534;8.316;2023-06-22T06:30:21;22.70;1.00
3626;DHT22;1827;50.534;8.316;2023-06-22T06:32:49;23.00;1.00
3626;DHT22;1827;50.534;8.316;2023-06-22T06:35:15;22.60;1.00
3626;DHT22;1827;50.534;8.316;2023-06-22T06:37:44;23.10;1.00
3626;DHT22;1827;50.534;8.316;2023-06-22T06:40:21;23.30;1.00
3626;DHT22;1827;50.534;8.316;2023-06-22T06:42:47;24.10;1.00
3626;DHT22;1827;50.534;8.316;2023-06-22T06:45:19;24.20;1.00
3626;DHT22;1827;50.534;8.316;2023-06-22T06:47:51;24.70;1.00
3626;DHT22;1827;50.534;8.316;2023-06-22T06:50:23;24.60;1.00
3626;DHT22;1827;50.534;8.316;2023-06-22T06:52:52;24.20;1.00
3626;DHT22;1827;50.534;8.316;2023-06-22T06:55:35;24.00;1.00
3626;DHT22;1827;50.534;8.316;2023-06-22T06:58:04;23.90;1.00
3626;DHT22;1827;50.534;8.316;2023-06-22T07:00:36;24.00;1.00
3626;DHT22;1827;50.534;8.316;2023-06-22T07:03:02;25.10;1.00
3626;DHT22;1827;50.534;8.316;2023-06-22T07:05:31;25.30;1.00
3626;DHT22;1827;50.534;8.316;2023-06-22T07:07:56;25.30;1.00
3626;DHT22;1827;50.534;8.316;2023-06-22T07:10:23;24.50;99.90
3626;DHT22;1827;50.534;8.316;2023-06-22T07:12:48;24.60;99.90
3626;DHT22;1827;50.534;8.316;2023-06-22T07:15:14;24.60;1.00
3626;DHT22;1827;50.534;8.316;2023-06-22T07:17:40;25.10;1.00
3626;DHT22;1827;50.534;8.316;2023-06-22T07:20:06;24.70;1.00
3626;DHT22;1827;50.534;8.316;2023-06-22T07:22:36;24.20;99.90
3626;DHT22;1827;50.534;8.316;2023-06-22T07:25:02;24.50;1.00
3626;DHT22;1827;50.534;8.316;2023-06-22T07:28:16;24.60;1.00
3626;DHT22;1827;50.534;8.316;2023-06-22T07:30:23;24.30;99.90
3626;DHT22;1827;50.534;8.316;2023-06-22T07:32:51;25.40;1.00
3626;DHT22;1827;50.534;8.316;2023-06-22T07:35:17;24.50;99.90
3626;DHT22;1827;50.534;8.316;2023-06-22T07:37:43;24.60;99.90
3626;DHT22;1827;50.534;8.316;2023-06-22T07:40:09;25.70;99.90
3626;DHT22;1827;50.534;8.316;2023-06-22T07:42:44;26.20;99.90
3626;DHT22;1827;50.534;8.316;2023-06-22T07:45:19;26.00;99.90
3626;DHT22;1827;50.534;8.316;2023-06-22T07:47:45;26.00;99.90
3626;DHT22;1827;50.534;8.316;2023-06-22T07:50:11;25.80;99.90
3626;DHT22;1827;50.534;8.316;2023-06-22T07:52:38;25.50;99.90
3626;DHT22;1827;50.534;8.316;2023-06-22T07:55:06;25.90;99.90
3626;DHT22;1827;50.534;8.316;2023-06-22T07:57:32;27.10;99.90
3626;DHT22;1827;50.534;8.316;2023-06-22T07:59:59;26.70;99.90
3626;DHT22;1827;50.534;8.316;2023-06-22T08:02:38;25.60;99.90
3626;DHT22;1827;50.534;8.316;2023-06-22T08:05:04;26.90;99.90
3626;DHT22;1827;50.534;8.316;2023-06-22T08:07:30;26.50;99.90
3626;DHT22;1827;50.534;8.316;2023-06-22T08:09:58;25.80;99.90
3626;DHT22;1827;50.534;8.316;2023-06-22T08:12:24;26.40;99.90
3626;DHT22;1827;50.534;8.316;2023-06-22T08:14:50;25.60;99.90
3626;DHT22;1827;50.534;8.316;2023-06-22T08:17:16;25.50;99.90
3626;DHT22;1827;50.534;8.316;2023-06-22T08:19:41;25.80;99.90
3626;DHT22;1827;50.534;8.316;2023-06-22T08:22:07;27.30;99.90
3626;DHT22;1827;50.534;8.316;2023-06-22T08:24:33;27.70;99.90
3626;DHT22;1827;50.534;8.316;2023-06-22T08:26:58;27.20;99.90
3626;DHT22;1827;50.534;8.316;2023-06-22T08:29:26;26.30;99.90
3626;DHT22;1827;50.534;8.316;2023-06-22T08:31:54;26.70;99.90
3626;DHT22;1827;50.534;8.316;2023-06-22T08:34:23;26.60;99.90
3626;DHT22;1827;50.534;8.316;2023-06-22T08:36:50;27.00;99.90
3626;DHT22;1827;50.534;8.316;2023-06-22T08:39:23;27.40;99.90
3626;DHT22;1827;50.534;8.316;2023-06-22T08:41:49;28.20;99.90
3626;DHT22;1827;50.534;8.316;2023-06-22T08:44:16;27.50;99.90
3626;DHT22;1827;50.534;8.316;2023-06-22T08:46:42;27.30;99.90
3626;DHT22;1827;50.534;8.316;2023-06-22T08:49:08;28.20;99.90
3626;DHT22;1827;50.534;8.316;2023-06-22T08:51:35;28.60;99.90
3626;DHT22;1827;50.534;8.316;2023-06-22T08:54:01;28.90;99.90
3626;DHT22;1827;50.534;8.316;2023-06-22T08:56:33;29.70;99.90
3626;DHT22;1827;50.534;8.316;2023-06-22T08:58:58;28.00;99.90
3626;DHT22;1827;50.534;8.316;2023-06-22T09:01:35;27.00;99.90
3626;DHT22;1827;50.534;8.316;2023-06-22T09:04:01;27.40;99.90
3626;DHT22;1827;50.534;8.316;2023-06-22T09:06:26;28.20;99.90
3626;DHT22;1827;50.534;8.316;2023-06-22T09:08:58;28.40;99.90
3626;DHT22;1827;50.534;8.316;2023-06-22T09:11:29;28.70;99.90
3626;DHT22;1827;50.534;8.316;2023-06-22T09:13:54;28.00;99.90
3626;DHT22;1827;50.534;8.316;2023-06-22T09:16:21;27.60;99.90
3626;DHT22;1827;50.534;8.316;2023-06-22T09:18:47;27.80;99.90
3626;DHT22;1827;50.534;8.316;2023-06-22T09:21:14;28.00;99.90
3626;DHT22;1827;50.534;8.316;2023-06-22T09:23:40;29.20;99.90
3626;DHT22;1827;50.534;8.316;2023-06-22T09:26:06;29.90;99.90
3626;DHT22;1827;50.534;8.316;2023-06-22T09:28:32;29.30;99.90
3626;DHT22;1827;50.534;8.316;2023-06-22T09:30:59;27.80;99.90
3626;DHT22;1827;50.534;8.316;2023-06-22T09:33:25;28.10;99.90
3626;DHT22;1827;50.534;8.316;2023-06-22T09:35:51;28.00;99.90
3626;DHT22;1827;50.534;8.316;2023-06-22T09:38:17;28.40;99.90
3626;DHT22;1827;50.534;8.316;2023-06-22T09:40:45;28.00;99.90
3626;DHT22;1827;50.534;8.316;2023-06-22T09:43:10;28.40;99.90
3626;DHT22;1827;50.534;8.316;2023-06-22T09:45:37;27.80;99.90
3626;DHT22;1827;50.534;8.316;2023-06-22T09:48:03;28.00;99.90
3626;DHT22;1827;50.534;8.316;2023-06-22T09:50:29;28.80;99.90
3626;DHT22;1827;50.534;8.316;2023-06-22T09:52:54;29.00;99.90
3626;DHT22;1827;50.534;8.316;2023-06-22T09:55:21;28.70;99.90
3626;DHT22;1827;50.534;8.316;2023-06-22T09:57:52;28.90;99.90
3626;DHT22;1827;50.534;8.316;2023-06-22T10:00:29;28.90;99.90
3626;DHT22;1827;50.534;8.316;2023-06-22T10:02:54;29.10;99.90
3626;DHT22;1827;50.534;8.316;2023-06-22T10:05:23;28.80;99.90
3626;DHT22;1827;50.534;8.316;2023-06-22T10:08:01;27.60;99.90
3626;DHT22;1827;50.534;8.316;2023-06-22T10:10:38;28.20;99.90
3626;DHT22;1827;50.534;8.316;2023-06-22T10:13:11;27.60;99.90
3626;DHT22;1827;50.534;8.316;2023-06-22T10:18:38;27.60;99.90
3626;DHT22;1827;50.534;8.316;2023-06-22T10:21:44;28.40;99.90
3626;DHT22;1827;50.534;8.316;2023-06-22T10:24:14;29.30;99.90
3626;DHT22;1827;50.534;8.316;2023-06-22T10:26:39;29.70;99.90
3626;DHT22;1827;50.534;8.316;2023-06-22T10:29:05;29.20;99.90
3626;DHT22;1827;50.534;8.316;2023-06-22T10:31:31;29.60;99.90
3626;DHT22;1827;50.534;8.316;2023-06-22T10:33:57;29.80;99.90
3626;DHT22;1827;50.534;8.316;2023-06-22T10:36:22;29.00;99.90
3626;DHT22;1827;50.534;8.316;2023-06-22T10:38:48;27.90;99.90
3626;DHT22;1827;50.534;8.316;2023-06-22T10:41:14;28.60;99.90
3626;DHT22;1827;50.534;8.316;2023-06-22T10:43:40;28.50;99.90
3626;DHT22;1827;50.534;8.316;2023-06-22T10:46:06;28.60;99.90
3626;DHT22;1827;50.534;8.316;2023-06-22T10:48:35;29.00;99.90
3626;DHT22;1827;50.534;8.316;2023-06-22T10:51:07;29.00;99.90
3626;DHT22;1827;50.534;8.316;2023-06-22T10:53:32;29.90;99.90
3626;DHT22;1827;50.534;8.316;2023-06-22T10:55:58;30.90;99.90
3626;DHT22;1827;50.534;8.316;2023-06-22T10:58:25;30.50;99.90
3626;DHT22;1827;50.534;8.316;2023-06-22T11:00:57;29.10;99.90
3626;DHT22;1827;50.534;8.316;2023-06-22T11:03:27;28.90;99.90
3626;DHT22;1827;50.534;8.316;2023-06-22T11:05:53;29.40;99.90
3626;DHT22;1827;50.534;8.316;2023-06-22T11:08:19;30.70;99.90
3626;DHT22;1827;50.534;8.316;2023-06-22T11:10:47;31.60;99.90
3626;DHT22;1827;50.534;8.316;2023-06-22T11:13:15;31.60;99.90
3626;DHT22;1827;50.534;8.316;2023-06-22T11:15:44;32.10;99.90
3626;DHT22;1827;50.534;8.316;2023-06-22T11:18:10;32.30;99.90
3626;DHT22;1827;50.534;8.316;2023-06-22T11:20:39;32.40;99.90
3626;DHT22;1827;50.534;8.316;2023-06-22T11:23:06;32.10;99.90
3626;DHT22;1827;50.534;8.316;2023-06-22T11:25:37;32.20;99.90
3626;DHT22;1827;50.534;8.316;2023-06-22T11:28:06;32.20;99.90
3626;DHT22;1827;50.534;8.316;2023-06-22T11:30:31;33.10;99.90
3626;DHT22;1827;50.534;8.316;2023-06-22T11:32:58;34.00;99.90
3626;DHT22;1827;50.534;8.316;2023-06-22T11:35:24;33.70;99.90
3626;DHT22;1827;50.534;8.316;2023-06-22T11:37:50;33.80;99.90
3626;DHT22;1827;50.534;8.316;2023-06-22T11:40:20;33.80;99.90
3626;DHT22;1827;50.534;8.316;2023-06-22T11:42:51;32.40;99.90
3626;DHT22;1827;50.534;8.316;2023-06-22T11:45:20;30.90;99.90
3626;DHT22;1827;50.534;8.316;2023-06-22T11:47:56;32.50;99.90
3626;DHT22;1827;50.534;8.316;2023-06-22T11:50:47;32.80;99.90
3626;DHT22;1827;50.534;8.316;2023-06-22T11:53:32;33.60;99.90
3626;DHT22;1827;50.534;8.316;2023-06-22T11:56:14;32.50;99.90
3626;DHT22;1827;50.534;8.316;2023-06-22T11:58:49;32.70;99.90
3626;DHT22;1827;50.534;8.316;2023-06-22T12:01:23;32.00;99.90
3626;DHT22;1827;50.534;8.316;2023-06-22T12:03:59;32.60;99.90
3626;DHT22;1827;50.534;8.316;2023-06-22T12:06:38;32.70;99.90
3626;DHT22;1827;50.534;8.316;2023-06-22T12:09:49;32.30;99.90
3626;DHT22;1827;50.534;8.316;2023-06-22T12:12:24;33.20;99.90
3626;DHT22;1827;50.534;8.316;2023-06-22T12:14:57;33.70;99.90
3626;DHT22;1827;50.534;8.316;2023-06-22T12:17:38;33.70;99.90
3626;DHT22;1827;50.534;8.316;2023-06-22T12:20:28;34.10;99.90
3626;DHT22;1827;50.534;8.316;2023-06-22T12:22:58;34.00;99.90
3626;DHT22;1827;50.534;8.316;2023-06-22T12:25:24;32.00;99.90
3626;DHT22;1827;50.534;8.316;2023-06-22T12:27:52;32.30;99.90
3626;DHT22;1827;50.534;8.316;2023-06-22T12:30:22;32.90;99.90
3626;DHT22;1827;50.534;8.316;2023-06-22T12:32:47;32.10;99.90
3626;DHT22;1827;50.534;8.316;2023-06-22T12:35:13;32.10;99.90
3626;DHT22;1827;50.534;8.316;2023-06-22T12:37:40;33.10;99.90
3626;DHT22;1827;50.534;8.316;2023-06-22T12:40:06;34.70;99.90
3626;DHT22;1827;50.534;8.316;2023-06-22T12:42:39;33.60;99.90
3626;DHT22;1827;50.534;8.316;2023-06-22T12:45:05;33.40;99.90
3626;DHT22;1827;50.534;8.316;2023-06-22T12:47:31;32.80;99.90
3626;DHT22;1827;50.534;8.316;2023-06-22T12:49:56;34.40;99.90
3626;DHT22;1827;50.534;8.316;2023-06-22T12:52:22;35.40;99.90
3626;DHT22;1827;50.534;8.316;2023-06-22T12:54:48;35.60;99.90
3626;DHT22;1827;50.534;8.316;2023-06-22T12:57:14;34.60;99.90
3626;DHT22;1827;50.534;8.316;2023-06-22T12:59:40;32.90;99.90
3626;DHT22;1827;50.534;8.316;2023-06-22T13:02:05;32.40;99.90
3626;DHT22;1827;50.534;8.316;2023-06-22T13:04:31;32.10;99.90
3626;DHT22;1827;50.534;8.316;2023-06-22T13:07:00;33.70;99.90
3626;DHT22;1827;50.534;8.316;2023-06-22T13:09:26;34.40;99.90
3626;DHT22;1827;50.534;8.316;2023-06-22T13:11:54;35.00;99.90
3626;DHT22;1827;50.534;8.316;2023-06-22T13:14:20;34.60;99.90
3626;DHT22;1827;50.534;8.316;2023-06-22T13:16:49;35.00;99.90
3626;DHT22;1827;50.534;8.316;2023-06-22T13:19:15;35.20;99.90
3626;DHT22;1827;50.534;8.316;2023-06-22T13:21:41;34.80;99.90
3626;DHT22;1827;50.534;8.316;2023-06-22T13:24:07;33.80;99.90
3626;DHT22;1827;50.534;8.316;2023-06-22T13:26:32;35.30;99.90
3626;DHT22;1827;50.534;8.316;2023-06-22T13:28:58;35.60;99.90
3626;DHT22;1827;50.534;8.316;2023-06-22T13:31:24;35.90;99.90
3626;DHT22;1827;50.534;8.316;2023-06-22T13:33:50;36.10;99.90
3626;DHT22;1827;50.534;8.316;2023-06-22T13:36:17;36.30;99.90
3626;DHT22;1827;50.534;8.316;2023-06-22T13:38:43;36.40;99.90
3626;DHT22;1827;50.534;8.316;2023-06-22T13:41:09;34.20;99.90
3626;DHT22;1827;50.534;8.316;2023-06-22T13:43:35;33.90;99.90
3626;DHT22;1827;50.534;8.316;2023-06-22T13:46:00;33.40;99.90
3626;DHT22;1827;50.534;8.316;2023-06-22T13:48:26;35.00;99.90
3626;DHT22;1827;50.534;8.316;2023-06-22T13:50:54;34.70;99.90
3626;DHT22;1827;50.534;8.316;2023-06-22T13:53:20;35.40;99.90
3626;DHT22;1827;50.534;8.316;2023-06-22T13:55:45;35.20;99.90
3626;DHT22;1827;50.534;8.316;2023-06-22T13:58:13;34.50;99.90
3626;DHT22;1827;50.534;8.316;2023-06-22T14:00:39;34.70;99.90
3626;DHT22;1827;50.534;8.316;2023-06-22T14:03:05;34.50;99.90
3626;DHT22;1827;50.534;8.316;2023-06-22T14:05:30;34.20;99.90
3626;DHT22;1827;50.534;8.316;2023-06-22T14:07:59;34.00;99.90
3626;DHT22;1827;50.534;8.316;2023-06-22T14:10:26;34.40;99.90
3626;DHT22;1827;50.534;8.316;2023-06-22T14:12:51;34.30;99.90
3626;DHT22;1827;50.534;8.316;2023-06-22T14:15:21;33.80;99.90
3626;DHT22;1827;50.534;8.316;2023-06-22T14:17:48;33.90;99.90
3626;DHT22;1827;50.534;8.316;2023-06-22T14:20:16;33.50;99.90
3626;DHT22;1827;50.534;8.316;2023-06-22T14:22:42;33.00;99.90
3626;DHT22;1827;50.534;8.316;2023-06-22T14:25:09;33.00;99.90
3626;DHT22;1827;50.534;8.316;2023-06-22T14:27:35;33.00;99.90
3626;DHT22;1827;50.534;8.316;2023-06-22T14:30:01;32.80;99.90
3626;DHT22;1827;50.534;8.316;2023-06-22T14:32:30;32.70;99.90
3626;DHT22;1827;50.534;8.316;2023-06-22T14:34:58;32.60;99.90
3626;DHT22;1827;50.534;8.316;2023-06-22T14:37:27;32.30;99.90
3626;DHT22;1827;50.534;8.316;2023-06-22T14:39:53;32.20;99.90
3626;DHT22;1827;50.534;8.316;2023-06-22T14:42:18;32.00;99.90
3626;DHT22;1827;50.534;8.316;2023-06-22T14:44:47;31.70;99.90
3626;DHT22;1827;50.534;8.316;2023-06-22T14:47:17;31.30;99.90
3626;DHT22;1827;50.534;8.316;2023-06-22T14:49:44;31.00;99.90
3626;DHT22;1827;50.534;8.316;2023-06-22T14:52:09;30.70;99.90
3626;DHT22;1827;50.534;8.316;2023-06-22T14:54:35;30.50;99.90
3626;DHT22;1827;50.534;8.316;2023-06-22T14:57:01;30.40;99.90
3626;DHT22;1827;50.534;8.316;2023-06-22T14:59:26;30.30;99.90
3626;DHT22;1827;50.534;8.316;2023-06-22T15:01:52;30.20;99.90
3626;DHT22;1827;50.534;8.316;2023-06-22T15:04:18;30.00;99.90
3626;DHT22;1827;50.534;8.316;2023-06-22T15:06:47;30.00;99.90
3626;DHT22;1827;50.534;8.316;2023-06-22T15:09:16;30.10;99.90
3626;DHT22;1827;50.534;8.316;2023-06-22T15:11:42;30.00;99.90
3626;DHT22;1827;50.534;8.316;2023-06-22T15:14:10;29.80;99.90
3626;DHT22;1827;50.534;8.316;2023-06-22T15:16:42;29.90;99.90
3626;DHT22;1827;50.534;8.316;2023-06-22T15:19:10;29.70;99.90
3626;DHT22;1827;50.534;8.316;2023-06-22T15:21:38;29.80;99.90
3626;DHT22;1827;50.534;8.316;2023-06-22T15:24:04;29.40;99.90
3626;DHT22;1827;50.534;8.316;2023-06-22T15:26:30;28.90;99.90
3626;DHT22;1827;50.534;8.316;2023-06-22T15:28:59;28.10;99.90
3626;DHT22;1827;50.534;8.316;2023-06-22T15:31:28;27.80;99.90
3626;DHT22;1827;50.534;8.316;2023-06-22T15:33:54;27.20;99.90
3626;DHT22;1827;50.534;8.316;2023-06-22T15:36:20;26.80;99.90
3626;DHT22;1827;50.534;8.316;2023-06-22T15:38:50;26.40;99.90
3626;DHT22;1827;50.534;8.316;2023-06-22T15:41:18;26.20;99.90
3626;DHT22;1827;50.534;8.316;2023-06-22T15:43:47;26.10;99.90
3626;DHT22;1827;50.534;8.316;2023-06-22T15:46:12;25.60;99.90
3626;DHT22;1827;50.534;8.316;2023-06-22T15:48:38;25.30;99.90
3626;DHT22;1827;50.534;8.316;2023-06-22T15:51:06;25.00;99.90
3626;DHT22;1827;50.534;8.316;2023-06-22T15:53:32;24.80;99.90
3626;DHT22;1827;50.534;8.316;2023-06-22T15:56:02;24.40;99.90
3626;DHT22;1827;50.534;8.316;2023-06-22T15:58:28;24.20;99.90
3626;DHT22;1827;50.534;8.316;2023-06-22T16:01:00;24.00;99.90
3626;DHT22;1827;50.534;8.316;2023-06-22T16:03:26;23.90;99.90
3626;DHT22;1827;50.534;8.316;2023-06-22T16:05:52;23.90;99.90
3626;DHT22;1827;50.534;8.316;2023-06-22T16:08:18;23.70;99.90
3626;DHT22;1827;50.534;8.316;2023-06-22T16:10:44;23.60;99.90
3626;DHT22;1827;50.534;8.316;2023-06-22T16:13:10;23.50;99.90
3626;DHT22;1827;50.534;8.316;2023-06-22T16:15:38;23.30;99.90
3626;DHT22;1827;50.534;8.316;2023-06-22T16:18:05;23.30;99.90
3626;DHT22;1827;50.534;8.316;2023-06-22T16:20:34;23.40;99.90
3626;DHT22;1827;50.534;8.316;2023-06-22T16:23:00;23.10;99.90
3626;DHT22;1827;50.534;8.316;2023-06-22T16:25:28;22.90;99.90
3626;DHT22;1827;50.534;8.316;2023-06-22T16:27:54;22.60;1.00
3626;DHT22;1827;50.534;8.316;2023-06-22T16:30:20;22.50;99.90
3626;DHT22;1827;50.534;8.316;2023-06-22T16:32:58;22.50;99.90